RYR48WT EDJA-LIPZ
Flight info
| Callsign | RYR48WT |
|---|---|
| Flight time | 0h 47m |
| Altitude | 29000 |
| Route | KPT4A/24 KPT Z999 BEMKI L607 XEBIX Y740 NATAG M738 ADOSA/N0388F190 L612 ALBET |
| Aircraft | B38M/M-SDE1FGHILORVWXY/HB1 |
Departure
| Time | 2026-04-24 13:28 |
|---|---|
| Airport | Memmingen Allgau Airport (EDJA) |
Arrival
| Time | 2026-04-24 14:16 |
|---|---|
| Airport | Venice Marco Polo Airport (LIPZ) |
| Time | Latitude | Longitude | Altitude | Speed | Heading |
|---|---|---|---|---|---|
| 2026-04-24 13:26 | 47.99416 | 10.25306 | 2057 ft | 0 kts | 239° |
| 2026-04-24 13:26 | 47.99416 | 10.25305 | 2057 ft | 0 kts | 239° |
| 2026-04-24 13:27 | 47.99411 | 10.25295 | 2057 ft | 7 kts | 236° |
| 2026-04-24 13:28 | 47.99318 | 10.25072 | 2061 ft | 57 kts | 239° |
| 2026-04-24 13:28 | 47.98971 | 10.24191 | 2069 ft | 138 kts | 240° |
| 2026-04-24 13:28 | 47.98367 | 10.22665 | 2131 ft | 199 kts | 240° |
| 2026-04-24 13:28 | 47.97641 | 10.20804 | 2919 ft | 214 kts | 242° |
| 2026-04-24 13:29 | 47.96863 | 10.18871 | 3875 ft | 222 kts | 237° |
| 2026-04-24 13:29 | 47.95935 | 10.16984 | 4726 ft | 227 kts | 235° |
| 2026-04-24 13:29 | 47.95080 | 10.14954 | 5297 ft | 237 kts | 242° |
| 2026-04-24 13:29 | 47.94254 | 10.12754 | 5786 ft | 248 kts | 242° |
| 2026-04-24 13:30 | 47.93235 | 10.10651 | 6406 ft | 253 kts | 225° |
| 2026-04-24 13:30 | 47.91752 | 10.09252 | 7077 ft | 257 kts | 200° |
| 2026-04-24 13:30 | 47.89977 | 10.08818 | 7645 ft | 264 kts | 179° |
| 2026-04-24 13:30 | 47.88131 | 10.09200 | 8107 ft | 275 kts | 169° |
| 2026-04-24 13:31 | 47.86201 | 10.09833 | 8541 ft | 289 kts | 165° |
| 2026-04-24 13:31 | 47.84411 | 10.11230 | 9253 ft | 295 kts | 135° |
| 2026-04-24 13:31 | 47.83138 | 10.13608 | 10192 ft | 295 kts | 121° |
| 2026-04-24 13:31 | 47.81781 | 10.15959 | 10721 ft | 314 kts | 143° |
| 2026-04-24 13:32 | 47.79796 | 10.17597 | 10938 ft | 340 kts | 154° |
| 2026-04-24 13:32 | 47.78313 | 10.18640 | 11104 ft | 355 kts | 154° |
| 2026-04-24 13:32 | 47.76070 | 10.20220 | 11673 ft | 365 kts | 154° |
| 2026-04-24 13:32 | 47.73778 | 10.21882 | 12459 ft | 369 kts | 153° |
| 2026-04-24 13:33 | 47.71471 | 10.23605 | 13239 ft | 373 kts | 152° |
| 2026-04-24 13:33 | 47.69144 | 10.25380 | 13952 ft | 379 kts | 152° |
| 2026-04-24 13:33 | 47.66791 | 10.27197 | 14621 ft | 383 kts | 152° |
| 2026-04-24 13:33 | 47.64427 | 10.29035 | 15364 ft | 385 kts | 151° |
| 2026-04-24 13:34 | 47.62041 | 10.30884 | 16093 ft | 388 kts | 153° |
| 2026-04-24 13:34 | 47.59517 | 10.32345 | 16776 ft | 392 kts | 163° |
| 2026-04-24 13:34 | 47.56878 | 10.33450 | 17479 ft | 396 kts | 164° |
| 2026-04-24 13:34 | 47.54205 | 10.34505 | 18162 ft | 399 kts | 165° |
| 2026-04-24 13:35 | 47.51505 | 10.35564 | 18769 ft | 403 kts | 164° |
| 2026-04-24 13:35 | 47.48788 | 10.36646 | 19375 ft | 406 kts | 164° |
| 2026-04-24 13:35 | 47.46055 | 10.37752 | 19987 ft | 409 kts | 163° |
| 2026-04-24 13:35 | 47.43301 | 10.38878 | 20594 ft | 412 kts | 163° |
| 2026-04-24 13:36 | 47.40531 | 10.40018 | 21170 ft | 415 kts | 163° |
| 2026-04-24 13:36 | 47.37740 | 10.41171 | 21701 ft | 419 kts | 163° |
| 2026-04-24 13:36 | 47.34919 | 10.42338 | 22248 ft | 422 kts | 163° |
| 2026-04-24 13:36 | 47.32077 | 10.43518 | 22752 ft | 427 kts | 162° |
| 2026-04-24 13:37 | 47.29203 | 10.44707 | 23289 ft | 430 kts | 162° |
| 2026-04-24 13:37 | 47.26310 | 10.45899 | 23835 ft | 434 kts | 162° |
| 2026-04-24 13:37 | 47.23392 | 10.47100 | 24255 ft | 436 kts | 162° |
| 2026-04-24 13:37 | 47.20459 | 10.48308 | 24705 ft | 439 kts | 162° |
| 2026-04-24 13:38 | 47.17504 | 10.49523 | 25141 ft | 442 kts | 162° |
| 2026-04-24 13:38 | 47.14537 | 10.50742 | 25571 ft | 445 kts | 162° |
| 2026-04-24 13:38 | 47.11551 | 10.51967 | 26030 ft | 446 kts | 162° |
| 2026-04-24 13:38 | 47.08558 | 10.53192 | 26560 ft | 445 kts | 162° |
| 2026-04-24 13:39 | 47.05583 | 10.54408 | 27191 ft | 443 kts | 162° |
| 2026-04-24 13:39 | 47.02622 | 10.55618 | 27780 ft | 441 kts | 162° |
| 2026-04-24 13:39 | 46.99672 | 10.56823 | 28358 ft | 439 kts | 162° |
| 2026-04-24 13:39 | 46.96734 | 10.58021 | 28904 ft | 438 kts | 162° |
| 2026-04-24 13:40 | 46.93794 | 10.59220 | 29142 ft | 440 kts | 162° |
| 2026-04-24 13:40 | 46.90842 | 10.60422 | 29135 ft | 438 kts | 162° |
| 2026-04-24 13:40 | 46.84997 | 10.62796 | 29128 ft | 434 kts | 162° |
| 2026-04-24 13:41 | 46.79195 | 10.65150 | 29128 ft | 433 kts | 161° |
| 2026-04-24 13:41 | 46.73381 | 10.67503 | 29132 ft | 434 kts | 162° |
| 2026-04-24 13:42 | 46.67509 | 10.69647 | 29124 ft | 437 kts | 165° |
| 2026-04-24 13:42 | 46.61566 | 10.71516 | 29116 ft | 437 kts | 165° |
| 2026-04-24 13:43 | 46.55616 | 10.73403 | 29110 ft | 438 kts | 165° |
| 2026-04-24 13:43 | 46.49665 | 10.75330 | 29093 ft | 438 kts | 165° |
| 2026-04-24 13:44 | 46.43728 | 10.77263 | 29096 ft | 436 kts | 164° |
| 2026-04-24 13:44 | 46.37811 | 10.79186 | 29132 ft | 435 kts | 165° |
| 2026-04-24 13:45 | 46.34898 | 10.80128 | 29109 ft | 422 kts | 165° |
| 2026-04-24 13:45 | 46.32105 | 10.81030 | 29133 ft | 414 kts | 164° |
| 2026-04-24 13:45 | 46.26610 | 10.82807 | 29121 ft | 392 kts | 164° |
| 2026-04-24 13:46 | 46.23996 | 10.83650 | 29138 ft | 379 kts | 165° |
| 2026-04-24 13:46 | 46.21466 | 10.84465 | 29116 ft | 366 kts | 164° |
| 2026-04-24 13:46 | 46.19025 | 10.85247 | 29111 ft | 352 kts | 164° |
| 2026-04-24 13:46 | 46.16673 | 10.86001 | 29133 ft | 341 kts | 164° |
| 2026-04-24 13:47 | 46.12056 | 10.87484 | 29143 ft | 347 kts | 164° |
| 2026-04-24 13:47 | 46.07228 | 10.89040 | 29110 ft | 359 kts | 164° |
| 2026-04-24 13:48 | 46.02378 | 10.90586 | 29081 ft | 355 kts | 164° |
| 2026-04-24 13:48 | 45.97599 | 10.92108 | 29075 ft | 351 kts | 164° |
| 2026-04-24 13:49 | 45.92852 | 10.93620 | 29073 ft | 348 kts | 164° |
| 2026-04-24 13:49 | 45.88141 | 10.95118 | 29091 ft | 346 kts | 164° |
| 2026-04-24 13:50 | 45.83425 | 10.96616 | 29096 ft | 348 kts | 164° |
| 2026-04-24 13:50 | 45.78661 | 10.98122 | 29095 ft | 352 kts | 164° |
| 2026-04-24 13:51 | 45.73852 | 10.99633 | 29072 ft | 353 kts | 164° |
| 2026-04-24 13:51 | 45.71482 | 11.00376 | 28732 ft | 346 kts | 164° |
| 2026-04-24 13:51 | 45.69142 | 11.01110 | 28281 ft | 343 kts | 164° |
| 2026-04-24 13:52 | 45.66813 | 11.01857 | 27568 ft | 346 kts | 161° |
| 2026-04-24 13:52 | 45.64588 | 11.03282 | 26213 ft | 360 kts | 140° |
| 2026-04-24 13:52 | 45.62824 | 11.05873 | 24984 ft | 371 kts | 120° |
| 2026-04-24 13:52 | 45.61485 | 11.09034 | 24223 ft | 372 kts | 118° |
| 2026-04-24 13:53 | 45.60152 | 11.12180 | 23666 ft | 368 kts | 119° |
| 2026-04-24 13:53 | 45.58811 | 11.15269 | 23061 ft | 364 kts | 120° |
| 2026-04-24 13:53 | 45.57464 | 11.18294 | 22432 ft | 360 kts | 120° |
| 2026-04-24 13:53 | 45.56114 | 11.21285 | 21810 ft | 357 kts | 120° |
| 2026-04-24 13:54 | 45.54776 | 11.24240 | 21175 ft | 354 kts | 120° |
| 2026-04-24 13:54 | 45.53445 | 11.27181 | 20587 ft | 350 kts | 121° |
| 2026-04-24 13:54 | 45.52131 | 11.30086 | 20026 ft | 347 kts | 121° |
| 2026-04-24 13:54 | 45.50830 | 11.32962 | 19465 ft | 344 kts | 121° |
| 2026-04-24 13:55 | 45.49536 | 11.35823 | 18898 ft | 342 kts | 121° |
| 2026-04-24 13:55 | 45.48271 | 11.38619 | 18353 ft | 339 kts | 121° |
| 2026-04-24 13:55 | 45.46996 | 11.41433 | 17731 ft | 337 kts | 121° |
| 2026-04-24 13:55 | 45.45731 | 11.44223 | 17119 ft | 334 kts | 121° |
| 2026-04-24 13:56 | 45.44474 | 11.46992 | 16527 ft | 332 kts | 121° |
| 2026-04-24 13:56 | 45.43223 | 11.49744 | 15942 ft | 330 kts | 121° |
| 2026-04-24 13:56 | 45.41897 | 11.52398 | 15370 ft | 329 kts | 128° |
| 2026-04-24 13:56 | 45.40361 | 11.54799 | 14820 ft | 328 kts | 131° |
| 2026-04-24 13:57 | 45.38801 | 11.57148 | 14269 ft | 326 kts | 130° |
| 2026-04-24 13:57 | 45.37268 | 11.59504 | 13751 ft | 323 kts | 130° |
| 2026-04-24 13:57 | 45.35765 | 11.61852 | 13216 ft | 319 kts | 128° |
| 2026-04-24 13:57 | 45.34643 | 11.64504 | 12570 ft | 313 kts | 105° |
| 2026-04-24 13:58 | 45.34348 | 11.67520 | 12011 ft | 306 kts | 86° |
| 2026-04-24 13:58 | 45.34480 | 11.70525 | 11442 ft | 305 kts | 83° |
| 2026-04-24 13:58 | 45.34650 | 11.73526 | 10869 ft | 304 kts | 84° |
| 2026-04-24 13:58 | 45.34802 | 11.76475 | 10586 ft | 294 kts | 84° |
| 2026-04-24 13:59 | 45.34940 | 11.79333 | 10329 ft | 285 kts | 84° |
| 2026-04-24 13:59 | 45.35040 | 11.82107 | 10093 ft | 280 kts | 91° |
| 2026-04-24 13:59 | 45.34497 | 11.84747 | 9848 ft | 282 kts | 119° |
| 2026-04-24 13:59 | 45.33296 | 11.86954 | 9630 ft | 283 kts | 130° |
| 2026-04-24 14:00 | 45.32020 | 11.89060 | 9436 ft | 280 kts | 129° |
| 2026-04-24 14:00 | 45.30460 | 11.90687 | 9113 ft | 282 kts | 162° |
| 2026-04-24 14:00 | 45.28557 | 11.90756 | 8997 ft | 273 kts | 200° |
| 2026-04-24 14:00 | 45.26966 | 11.89433 | 9034 ft | 263 kts | 218° |
| 2026-04-24 14:01 | 45.25561 | 11.87768 | 9040 ft | 265 kts | 224° |
| 2026-04-24 14:01 | 45.24199 | 11.85986 | 9044 ft | 271 kts | 224° |
| 2026-04-24 14:01 | 45.22798 | 11.84150 | 9055 ft | 273 kts | 224° |
| 2026-04-24 14:01 | 45.21402 | 11.82345 | 9048 ft | 271 kts | 223° |
| 2026-04-24 14:02 | 45.19997 | 11.80562 | 9037 ft | 270 kts | 223° |
| 2026-04-24 14:02 | 45.18592 | 11.78794 | 9041 ft | 270 kts | 223° |
| 2026-04-24 14:02 | 45.17190 | 11.77034 | 9037 ft | 269 kts | 223° |
| 2026-04-24 14:02 | 45.15790 | 11.75279 | 9038 ft | 269 kts | 223° |
| 2026-04-24 14:03 | 45.14391 | 11.73527 | 9032 ft | 267 kts | 223° |
| 2026-04-24 14:03 | 45.12955 | 11.71895 | 9009 ft | 263 kts | 209° |
| 2026-04-24 14:03 | 45.11226 | 11.71318 | 8991 ft | 254 kts | 177° |
| 2026-04-24 14:03 | 45.09549 | 11.71976 | 8834 ft | 250 kts | 151° |
| 2026-04-24 14:04 | 45.08188 | 11.73421 | 8648 ft | 250 kts | 133° |
| 2026-04-24 14:04 | 45.07088 | 11.75320 | 8440 ft | 250 kts | 116° |
| 2026-04-24 14:04 | 45.06713 | 11.77675 | 8233 ft | 246 kts | 83° |
| 2026-04-24 14:04 | 45.07216 | 11.79947 | 8048 ft | 242 kts | 56° |
| 2026-04-24 14:05 | 45.08321 | 11.81766 | 7869 ft | 241 kts | 40° |
| 2026-04-24 14:05 | 45.09564 | 11.83317 | 7666 ft | 242 kts | 39° |
| 2026-04-24 14:05 | 45.10837 | 11.84875 | 7444 ft | 241 kts | 39° |
| 2026-04-24 14:05 | 45.12099 | 11.86419 | 7243 ft | 239 kts | 39° |
| 2026-04-24 14:06 | 45.13348 | 11.87962 | 7044 ft | 237 kts | 39° |
| 2026-04-24 14:06 | 45.14579 | 11.89500 | 6846 ft | 235 kts | 39° |
| 2026-04-24 14:06 | 45.15799 | 11.91029 | 6665 ft | 233 kts | 40° |
| 2026-04-24 14:06 | 45.17011 | 11.92552 | 6465 ft | 232 kts | 40° |
| 2026-04-24 14:07 | 45.18217 | 11.94073 | 6197 ft | 232 kts | 40° |
| 2026-04-24 14:07 | 45.19407 | 11.95572 | 5924 ft | 227 kts | 40° |
| 2026-04-24 14:07 | 45.20570 | 11.97036 | 5795 ft | 223 kts | 39° |
| 2026-04-24 14:07 | 45.21741 | 11.98510 | 5611 ft | 225 kts | 40° |
| 2026-04-24 14:08 | 45.22889 | 11.99958 | 5443 ft | 216 kts | 39° |
| 2026-04-24 14:08 | 45.23935 | 12.01279 | 5261 ft | 205 kts | 39° |
| 2026-04-24 14:08 | 45.24970 | 12.02584 | 5085 ft | 193 kts | 39° |
| 2026-04-24 14:08 | 45.25964 | 12.03838 | 4907 ft | 189 kts | 38° |
| 2026-04-24 14:09 | 45.26955 | 12.05066 | 4753 ft | 189 kts | 39° |
| 2026-04-24 14:09 | 45.27943 | 12.06293 | 4607 ft | 189 kts | 39° |
| 2026-04-24 14:09 | 45.28932 | 12.07535 | 4456 ft | 190 kts | 40° |
| 2026-04-24 14:09 | 45.29917 | 12.08803 | 4299 ft | 191 kts | 40° |
| 2026-04-24 14:10 | 45.30576 | 12.09640 | 4198 ft | 193 kts | 40° |
| 2026-04-24 14:10 | 45.31953 | 12.11284 | 3958 ft | 193 kts | 39° |
| 2026-04-24 14:10 | 45.32968 | 12.12537 | 3807 ft | 193 kts | 40° |
| 2026-04-24 14:10 | 45.33973 | 12.13816 | 3652 ft | 194 kts | 40° |
| 2026-04-24 14:11 | 45.34940 | 12.15063 | 3520 ft | 176 kts | 41° |
| 2026-04-24 14:11 | 45.35811 | 12.16187 | 3390 ft | 164 kts | 40° |
| 2026-04-24 14:11 | 45.37499 | 12.18369 | 3167 ft | 168 kts | 40° |
| 2026-04-24 14:12 | 45.38354 | 12.19476 | 3090 ft | 164 kts | 41° |
| 2026-04-24 14:12 | 45.39194 | 12.20575 | 2895 ft | 165 kts | 41° |
| 2026-04-24 14:12 | 45.40032 | 12.21690 | 2682 ft | 163 kts | 43° |
| 2026-04-24 14:12 | 45.40838 | 12.22810 | 2410 ft | 159 kts | 43° |
| 2026-04-24 14:13 | 45.41621 | 12.23818 | 2193 ft | 146 kts | 40° |
| 2026-04-24 14:13 | 45.42364 | 12.24755 | 1980 ft | 139 kts | 41° |
| 2026-04-24 14:13 | 45.43093 | 12.25660 | 1827 ft | 139 kts | 40° |
| 2026-04-24 14:13 | 45.43855 | 12.26605 | 1644 ft | 148 kts | 41° |
| 2026-04-24 14:14 | 45.44658 | 12.27500 | 1562 ft | 145 kts | 37° |
| 2026-04-24 14:14 | 45.45422 | 12.28467 | 1209 ft | 148 kts | 50° |
| 2026-04-24 14:14 | 45.46898 | 12.30519 | 648 ft | 146 kts | 39° |
| 2026-04-24 14:15 | 45.47635 | 12.31464 | 472 ft | 139 kts | 47° |
| 2026-04-24 14:15 | 45.48338 | 12.32387 | 301 ft | 135 kts | 45° |
| 2026-04-24 14:15 | 45.49014 | 12.33246 | 152 ft | 127 kts | 44° |
| 2026-04-24 14:15 | 45.49651 | 12.34064 | 17 ft | 117 kts | 46° |
| 2026-04-24 14:16 | 45.50161 | 12.34748 | 13 ft | 82 kts | 39° |
| 2026-04-24 14:16 | 45.50482 | 12.35149 | 10 ft | 46 kts | 42° |
| 2026-04-24 14:16 | 45.50708 | 12.35385 | 14 ft | 18 kts | 17° |
| 2026-04-24 14:17 | 45.50925 | 12.35395 | 16 ft | 17 kts | 282° |
| 2026-04-24 14:17 | 45.50960 | 12.35245 | 18 ft | 16 kts | 259° |
| 2026-04-24 14:17 | 45.50816 | 12.35030 | 16 ft | 15 kts | 226° |
| 2026-04-24 14:18 | 45.50769 | 12.34963 | 14 ft | 14 kts | 224° |
| 2026-04-24 14:18 | 45.50697 | 12.34873 | 14 ft | 13 kts | 221° |
| 2026-04-24 14:18 | 45.50634 | 12.34779 | 13 ft | 13 kts | 253° |
| 2026-04-24 14:18 | 45.50674 | 12.34671 | 13 ft | 12 kts | 312° |
| 2026-04-24 14:19 | 45.50713 | 12.34611 | 11 ft | 0 kts | 314° |
| 2026-04-24 14:19 | 45.50721 | 12.34599 | 11 ft | 2 kts | 311° |
| 2026-04-24 14:19 | 45.50731 | 12.34564 | 11 ft | 9 kts | 279° |
| 2026-04-24 14:19 | 45.50704 | 12.34499 | 11 ft | 0 kts | 217° |
| 2026-04-24 14:20 | 45.50703 | 12.34497 | 11 ft | 0 kts | 219° |